Table of current weather in Finland weather stations (FMI)

Data updated at Finland time 20.01.2020 12:15   Click the links in "Station" for forecasts

Station
 
Station name
 
 Loc 
 
Observed
 
Temp.
°C
Wind
m/s
From
 
Windchill
°C
Gusts
m/s
Humidity
%
Air pressure
hPa
Clouds
 
Conditions
 
Precip.
mm/1h
Snow
cm
100968 Helsinki-Vantaa Map 20.01 12:00 2.6 5.7 SW -2.0 7.8 75.0 1023.0 cloudy (7/8) 0.0 0.0
100971 Helsinki/Kaisaniemi Map 20.01 12:00 3.9 5.2 W -0.2 8.7 60.0 1023.2 cloudy (7/8) 0.0 0.0
874863 Espoo/Tapiola Map 20.01 12:00 3.7 6.1 SW -0.8 9.2 61.0 1023.4 overcast (8/8) 0.0 0.0
852678 Espoo/Nuuksio Map 20.01 12:00 1.6 3.8 SW -2.2 6.5 86.0 1023.2 overcast (8/8) 0.0 0.0
151029 Mariehamn Map 20.01 12:00 3.5 8.7 SW -2.0 12.0 76.0 1025.1
100908 Utö Map 20.01 12:00 4.5 12.5 SW -1.7 15.3 78.0 1025.5 partly cloudy (4/8) 0.0
100949 Turku/Artukainen Map 20.01 12:00 3.4 2.4 SW 1.1 5.7 72.0 1023.8 overcast (8/8) 0.0 0.0
101247 Lappeenranta/Lepola Map 20.01 12:00 1.5 89.0 1019.5 overcast (8/8) 0.0 0.0
101254 Parikkala Map 20.01 12:00 1.0 3.0 S -2.3 5.1 92.0 1018.2 0.0 0.0
101124 Tampere/Härmälä Map 20.01 12:00 1.9 78.0 1020.2 overcast (8/8) Drizzle, moderate 0.0 0.0
101339 Jyväskylä/Airport Map 20.01 12:00 1.2 3.2 SW -2.2 6.6 81.0 1014.9 cloudy (7/8) 0.0 0.0
101632 Joensuu/Linnunlahti Map 20.01 12:00 -1.6 89.0 1016.0 overcast (8/8) 0.0 8.0
101586 Kuopio/Savilahti Map 20.01 12:00 0.7 3.4 SW -3.0 6.4 89.0 1012.5 cloudy (7/8) Snow, slight 0.0 2.0
101485 Vaasa/Kemettilä Map 20.01 12:00 3.5 6.2 SW -1.1 10.5 83.0 1015.5 cloudy (7/8) 0.0 4.0
126736 Kajaani/Petäisenniska Map 20.01 12:00 -1.6 4.7 SW -6.7 8.6 94.0 1009.2 overcast (8/8) Snow, slight 0.4 23.0
101773 Kuhmo/Kalliojoki Map 20.01 12:00 -3.3 2.8 S -7.3 5.6 96.0 1010.1 cloudy (7/8) Snow showers, slight 0.1 37.0
101799 Oulu/Oulunsalo Map 20.01 12:00 1.9 4.6 SW -2.3 10.0 96.0 1006.4 partly cloudy (4/8) 0.0 26.0
101831 Puolanka Map 20.01 12:00 -3.5 2.8 SW -7.5 6.6 98.0 0.6 82.0
107081 Kuusamo/Välikangas Map 20.01 12:00 -4.5 95.0 0.1 80.0
101920 Rovaniemi/Airport Map 20.01 12:00 -0.8 99.0 Snow Snow 0.0 72.0
101966 Salla/Naruska Map 20.01 12:00 -4.8 1.2 SE -6.6 2.3 98.0 1002.5 0.3 95.0
101994 Kittilä/Pokka Map 20.01 12:00 -5.3 3.4 SW -10.3 6.7 96.0 overcast (8/8) Freezing rain 0.2 96.0
102019 Enontekiö/Näkkälä Map 20.01 12:00 -6.8 2.9 S -11.6 5.5 94.0 998.5 overcast (8/8) 0.0 72.0
102052 Ivalo Map 20.01 12:00 -5.9 4.7 S -12.1 8.9 92.0 998.0 overcast (8/8) Snow showers, slight 0.1 59.0
102016 Enontekiö/Kilpisjärvi Map 20.01 12:00 0.6 4.1 N -3.6 6.7 94.0 996.6 cloudy (7/8) Snow, slight 0.0 80.0
102035 Utsjoki/Kevo Map 20.01 12:00 -7.7 5.1 S -14.6 6.7 95.0 996.2 cloudy (7/8) Snow showers, slight 0.0 67.0